Date,TemperatureHighF,TemperatureAvgF,TemperatureLowF,DewpointHighF,DewpointAvgF,DewpointLowF,HumidityHigh,HumidityAvg,HumidityLow,PressureMaxIn,PressureMinIn,WindSpeedMaxMPH,WindSpeedAvgMPH,GustSpeedMaxMPH,PrecipitationSumIn
2013-1-2,34.0,32.6,31.3,16.2,13.4,11.7,48,45,42,30.27,30.21,0,0,0,0.00
2013-1-3,38.5,32.4,28.8,23.8,18.5,11.7,71,56,44,30.29,30.18,0,0,0,0.00
2013-1-4,44.5,36.5,29.3,25.9,20.6,17.5,83,54,37,30.24,30.13,0,0,0,0.00
2013-1-5,44.5,38.3,32.8,32.9,21.8,18.2,80,52,37,30.41,30.18,0,0,0,0.00
2013-1-6,51.4,43.4,33.8,34.5,29.5,25.0,90,60,37,30.22,30.04,0,0,0,0.00
2013-1-7,45.7,42.0,33.8,30.7,26.9,23.9,84,56,43,30.46,30.17,0,0,0,0.00
2013-1-8,52.5,41.3,31.4,35.5,32.0,27.3,89,71,46,30.45,30.38,0,0,0,0.00
2013-1-9,53.6,42.3,34.9,42.5,37.3,27.1,94,83,36,30.41,30.25,0,0,0,0.00
2013-1-10,54.2,48.3,43.4,31.2,28.1,24.8,60,46,33,30.62,30.41,0,0,0,0.00
2013-1-11,44.4,42.1,38.5,42.9,36.5,29.1,100,82,57,30.52,30.12,0,0,0,0.00
2013-1-12,51.5,45.0,42.2,47.1,44.0,42.2,100,96,83,30.20,30.12,0,0,0,0.00
2013-1-13,53.7,48.6,42.2,53.7,48.6,42.2,100,100,99,30.18,30.00,0,0,0,0.00
2013-1-14,59.4,52.5,40.5,58.7,45.5,36.2,100,78,61,30.32,29.97,0,0,0,0.00
2013-1-15,40.7,39.2,36.1,39.7,38.3,35.5,99,97,90,30.37,30.17,0,0,0,0.00
2013-1-16,41.4,38.2,35.2,41.1,37.8,34.6,100,99,96,30.18,29.87,0,0,0,0.00
2013-1-17,43.8,41.6,39.1,42.0,35.0,27.9,100,79,54,30.16,29.99,0,0,0,0.00
2013-1-18,39.2,35.4,32.7,30.3,17.4,3.9,71,49,27,30.53,30.05,0,0,0,0.00
2013-1-19,53.5,41.5,32.5,28.1,25.2,21.0,72,54,32,30.45,30.00,0,0,0,0.00
2013-1-20,59.4,47.0,38.8,31.2,21.2,3.8,66,39,14,30.10,29.84,0,0,0,0.00
2013-1-21,46.2,38.1,31.3,28.6,19.5,10.1,57,47,34,30.13,29.80,0,0,0,0.00
2013-1-22,31.2,22.1,18.7,11.1,-3.0,-9.4,45,33,22,30.32,29.94,0,0,0,0.00
2013-1-23,26.4,21.7,15.7,14.6,0.1,-4.0,72,40,27,30.38,30.18,0,0,0,0.00
2013-1-24,27.2,22.3,18.1,18.0,8.9,-3.5,90,60,27,30.55,30.12,0,0,0,0.00
2013-1-25,24.1,21.6,19.4,18.9,7.4,-1.6,86,57,34,30.54,30.10,0,0,0,0.00
2013-1-26,34.8,28.9,23.4,23.6,20.7,18.4,83,72,55,30.46,30.11,0,0,0,0.00
2013-1-27,37.9,31.7,27.8,23.8,19.7,16.7,78,61,46,30.63,30.47,0,0,0,0.00
2013-1-28,47.2,37.4,31.9,43.2,33.9,23.1,97,87,69,30.53,30.07,0,0,0,0.00
2013-1-29,68.7,54.1,42.9,53.2,47.4,41.5,95,79,56,30.15,30.00,0,0,0,0.00
2013-1-30,70.8,62.3,55.9,62.0,57.5,51.0,99,85,73,30.00,29.23,0,0,0,0.00
2013-1-31,63.4,44.6,32.0,62.5,26.0,9.9,98,50,29,29.95,29.17,0,0,0,0.00
2013-2-1,34.7,27.8,20.5,28.6,9.9,-0.3,92,48,30,30.43,29.83,0,0,0,0.00
2013-2-2,32.2,25.3,18.5,27.4,12.7,2.2,94,60,35,30.43,30.04,0,0,0,0.00
2013-2-3,34.0,30.8,27.2,29.7,26.5,16.0,95,85,49,30.04,29.86,0,0,0,0.00
2013-2-4,36.9,31.9,25.9,24.0,15.6,10.0,60,51,42,30.14,29.92,0,0,0,0.00
2013-2-5,41.1,36.8,33.4,30.5,26.9,22.4,76,67,56,29.96,29.87,0,0,0,0.00
2013-2-6,45.6,38.9,33.8,31.6,27.1,22.9,84,64,43,30.38,29.96,0,0,0,0.00
2013-2-7,40.4,35.7,31.0,30.8,25.8,21.2,81,67,52,30.48,30.23,0,0,0,0.00
2013-2-8,42.8,37.7,32.6,39.3,33.3,21.1,98,85,54,30.23,29.76,0,0,0,0.00
2013-2-9,40.3,35.1,30.2,22.5,17.4,12.9,64,49,35,30.42,29.95,0,0,0,0.00
2013-2-10,45.0,36.0,26.6,30.9,18.5,8.7,81,51,25,30.51,30.27,0,0,0,0.00
2013-2-11,52.8,45.0,37.0,50.9,43.4,31.0,99,95,56,30.27,29.73,0,0,0,0.00
2013-2-12,56.5,49.4,41.2,33.4,27.5,23.5,67,43,29,30.02,29.82,0,0,0,0.00
2013-2-13,46.3,38.9,34.6,38.7,31.8,27.8,100,77,55,29.98,29.68,0,0,0,0.00
2013-2-14,48.3,40.6,33.5,34.1,29.9,24.1,97,69,42,30.04,29.80,0,0,0,0.00
2013-2-15,59.5,44.8,36.4,37.7,33.7,26.5,97,70,29,30.06,29.90,0,0,0,0.00
2013-2-16,39.5,36.5,32.1,36.1,29.7,15.5,97,78,47,30.04,29.86,0,0,0,0.00
2013-2-17,32.0,28.7,25.4,16.8,9.4,2.0,59,45,31,30.24,29.86,0,0,0,0.00
2013-2-18,41.1,31.9,21.8,21.7,9.2,3.8,56,39,22,30.42,30.19,0,0,0,0.00
2013-2-19,45.1,40.5,37.1,43.0,31.3,19.0,95,71,44,30.19,29.76,0,0,0,0.00
2013-2-20,39.4,33.9,26.1,23.3,13.7,7.2,52,43,34,30.20,29.87,0,0,0,0.00
2013-2-21,38.8,30.8,25.0,18.0,12.7,7.5,57,47,35,30.35,30.16,0,0,0,0.00
2013-2-22,33.5,32.1,31.1,31.6,23.8,16.6,96,72,51,30.41,30.25,0,0,0,0.00
2013-2-23,44.2,38.4,32.7,43.6,37.9,31.6,99,98,95,30.25,29.83,0,0,0,0.00
2013-2-24,51.8,43.2,34.2,42.5,31.1,17.9,96,66,33,30.14,29.82,0,0,0,0.00
2013-2-25,46.0,38.2,30.4,28.6,22.6,18.2,75,54,40,30.24,30.14,0,0,0,0.00
2013-2-26,44.2,38.4,32.9,43.7,34.9,27.0,99,88,70,30.25,29.62,0,0,0,0.00
2013-2-27,55.9,47.7,40.1,45.0,38.9,32.4,100,74,44,29.72,29.53,0,0,0,0.00
2013-2-28,47.5,44.1,41.3,37.7,29.2,20.5,86,57,34,29.75,29.65,0,0,0,0.00
2013-3-1,44.3,41.4,37.3,30.6,27.4,23.8,65,57,46,29.91,29.75,0,0,0,0.00
2013-3-2,37.4,34.4,31.3,25.0,21.5,19.1,67,59,48,29.92,29.84,0,0,0,0.00
2013-3-3,41.2,34.4,29.9,22.1,18.5,15.4,69,53,37,29.95,29.82,0,0,0,0.00
2013-3-4,43.2,35.4,29.6,17.7,15.5,12.2,60,45,30,30.06,29.94,0,0,0,0.00
2013-3-5,50.2,40.4,32.9,31.8,19.5,3.5,81,45,15,30.11,29.84,0,0,0,0.00
2013-3-6,40.1,35.9,33.1,36.3,34.1,31.5,100,93,74,30.01,29.61,0,0,0,0.00
2013-3-7,49.7,42.5,36.8,32.6,28.1,23.9,75,58,37,30.17,30.01,0,0,0,0.00
2013-3-8,49.4,42.7,37.3,29.0,26.7,23.0,69,54,42,30.28,30.15,0,0,0,0.00
2013-3-9,59.1,46.7,35.5,33.5,25.2,17.9,71,45,20,30.38,30.26,0,0,0,0.00
2013-3-10,63.0,49.4,35.6,38.4,26.4,7.2,86,48,11,30.36,30.24,0,0,0,0.00
2013-3-11,60.8,51.9,43.8,50.1,45.2,38.8,93,79,66,30.27,29.96,0,0,0,0.00
2013-3-12,58.2,53.7,43.1,56.2,46.4,31.4,99,78,53,29.99,29.71,0,0,0,0.00
2013-3-13,50.9,42.8,35.6,31.9,25.8,16.4,75,52,27,30.09,29.92,0,0,0,0.00
2013-3-14,45.7,38.4,32.9,20.0,15.8,11.4,54,40,26,30.16,30.04,0,0,0,0.00
2013-3-15,57.2,46.4,34.0,37.9,26.9,17.6,68,47,30,30.12,29.80,0,0,0,0.00
2013-3-16,60.9,48.7,41.3,48.8,38.0,33.7,84,67,47,29.93,29.65,0,0,0,0.00
2013-3-17,41.4,39.2,36.9,35.8,31.4,25.6,84,74,58,30.30,29.92,0,0,0,0.00
2013-3-18,38.9,36.7,31.9,37.4,31.4,23.0,99,83,54,30.35,29.91,0,0,0,0.00
2013-3-19,59.4,46.0,37.0,42.3,29.1,1.9,98,64,11,29.94,29.73,0,0,0,0.00
2013-3-20,53.2,45.8,38.4,23.0,10.8,3.1,45,24,16,30.02,29.78,0,0,0,0.00
2013-3-21,42.6,34.9,30.1,27.9,14.4,5.3,78,44,30,29.93,29.79,0,0,0,0.00
2013-3-22,48.0,37.2,28.8,21.5,14.8,9.1,52,40,27,30.02,29.91,0,0,0,0.00
2013-3-23,53.9,42.9,31.5,25.8,21.1,19.2,66,43,27,30.06,29.92,0,0,0,0.00
2013-3-24,43.1,38.5,34.0,33.7,25.1,20.0,96,60,43,30.02,29.68,0,0,0,0.00
2013-3-25,63.5,34.7,32.0,36.2,33.9,31.4,99,97,92,29.72,29.54,0,0,0,0.00
2013-3-26,48.7,42.1,34.8,34.7,29.9,22.3,96,66,36,30.00,29.72,0,0,0,0.00
2013-3-27,50.6,44.0,38.8,29.9,26.6,21.8,65,51,36,30.15,30.00,0,0,0,0.00
2013-3-28,48.0,43.9,39.1,29.7,27.5,25.0,61,53,41,30.25,30.11,0,0,0,0.00
2013-3-29,55.8,48.3,41.5,33.5,28.2,22.5,63,47,29,30.28,30.16,0,0,0,0.00
2013-3-30,60.7,50.3,40.6,35.7,28.7,18.2,79,48,20,30.24,30.12,0,0,0,0.00
2013-3-31,55.6,49.8,45.4,50.2,40.7,27.8,95,72,44,30.15,29.76,0,0,0,0.00
2013-4-1,65.1,51.5,43.3,47.5,36.9,19.0,99,62,31,30.01,29.74,0,0,0,0.00
2013-4-2,50.5,43.7,38.7,19.0,11.8,7.0,40,28,17,30.19,30.01,0,0,0,0.00
2013-4-3,52.0,42.0,35.4,17.6,12.9,5.1,44,32,15,30.41,30.19,0,0,0,0.00
2013-4-4,50.4,40.9,32.2,37.4,19.0,9.2,95,44,23,30.44,30.12,0,0,0,0.00
2013-4-5,65.0,52.6,38.0,40.5,28.9,18.3,97,50,19,30.12,29.84,0,0,0,0.00
2013-4-6,56.3,47.9,40.7,32.2,20.6,13.6,59,35,22,30.35,30.06,0,0,0,0.00
2013-4-7,70.2,55.7,41.6,40.1,35.4,30.1,77,49,28,30.31,30.00,0,0,0,0.00
2013-4-8,80.3,67.6,55.3,49.5,44.0,39.9,63,44,26,30.09,29.95,0,0,0,0.00
2013-4-9,85.6,76.1,63.2,53.3,50.4,47.1,65,42,27,30.09,29.93,0,0,0,0.00
2013-4-10,91.3,79.3,66.4,56.0,52.4,48.6,64,41,26,29.98,29.79,0,0,0,0.00
2013-4-11,85.9,72.7,56.5,59.3,55.7,51.0,86,58,32,29.89,29.73,0,0,0,0.00
2013-4-12,72.8,60.5,52.9,66.5,57.8,50.5,100,91,80,29.83,29.57,0,0,0,0.00
2013-4-13,69.3,58.7,49.5,53.0,40.7,32.8,85,53,26,29.96,29.76,0,0,0,0.00
2013-4-14,66.8,57.9,48.5,46.9,39.2,32.1,76,52,30,30.16,29.96,0,0,0,0.00
2013-4-15,61.2,58.8,56.1,51.7,46.8,43.6,79,65,58,30.31,30.14,0,0,0,0.00
2013-4-16,74.5,63.7,55.4,59.0,53.9,47.6,84,71,53,30.33,30.13,0,0,0,0.00
2013-4-17,77.0,67.1,60.7,61.3,58.4,54.4,93,74,53,30.25,30.13,0,0,0,0.00
2013-4-18,77.5,66.5,59.8,63.3,58.4,55.1,93,76,51,30.24,30.02,0,0,0,0.00
2013-4-19,78.8,69.3,50.6,67.3,61.1,49.2,97,76,59,30.02,29.59,0,0,0,0.00
2013-4-20,60.5,54.7,47.1,50.0,27.8,22.4,97,38,24,30.35,29.80,0,0,0,0.00
2013-4-21,54.4,48.6,42.6,34.0,24.9,19.2,62,40,26,30.61,30.35,0,0,0,0.00
2013-4-22,55.1,48.6,41.7,38.3,35.9,32.8,77,62,50,30.60,30.42,0,0,0,0.00
2013-4-23,59.9,52.5,47.5,44.4,41.8,37.3,84,68,51,30.42,30.15,0,0,0,0.00
2013-4-24,77.9,62.9,47.9,54.9,49.2,42.8,90,64,34,30.14,29.81,0,0,0,0.00
2013-4-25,64.3,55.9,47.1,47.7,33.0,22.8,72,44,22,30.33,29.98,0,0,0,0.00
2013-4-26,66.5,57.7,48.6,42.3,35.9,28.7,75,46,25,30.47,30.32,0,0,0,0.00
2013-4-27,80.5,58.9,48.5,46.4,40.0,33.4,82,52,28,30.43,30.30,0,0,0,0.00
2013-4-28,66.6,58.9,51.6,49.4,42.1,32.8,77,56,29,30.31,30.16,0,0,0,0.00
2013-4-29,58.9,56.1,53.3,58.0,53.9,43.2,99,93,59,30.18,30.06,0,0,0,0.00
2013-4-30,59.9,57.1,55.2,57.1,54.2,44.9,99,90,62,30.30,30.10,0,0,0,0.00
2013-5-1,67.9,59.1,49.7,49.9,42.0,31.1,83,57,26,30.45,30.30,0,0,0,0.00
2013-5-2,65.5,57.2,49.2,48.5,45.7,40.9,87,67,43,30.47,30.33,0,0,0,0.00
2013-5-3,65.3,56.9,50.1,48.2,42.8,34.9,86,61,33,30.40,30.32,0,0,0,0.00
2013-5-4,65.4,57.0,49.6,46.1,42.6,38.3,83,60,40,30.36,30.19,0,0,0,0.00
2013-5-5,61.1,53.7,47.0,47.1,41.9,38.7,79,65,48,30.27,30.17,0,0,0,0.00
2013-5-6,62.4,56.2,51.6,57.3,51.9,44.5,94,86,77,30.20,30.07,0,0,0,0.00
2013-5-7,62.8,60.3,58.1,62.0,59.1,56.7,99,96,90,30.08,29.93,0,0,0,0.00
2013-5-8,70.7,61.1,57.8,58.6,56.7,50.6,97,87,50,30.02,29.95,0,0,0,0.00
2013-5-9,74.3,62.0,55.8,65.0,57.9,54.0,100,88,54,30.01,29.94,0,0,0,0.00
2013-5-10,83.0,69.6,57.2,64.4,59.6,54.4,100,75,39,30.03,29.87,0,0,0,0.00
2013-5-11,78.8,67.3,62.6,67.8,63.7,60.2,100,90,55,29.95,29.71,0,0,0,0.00
2013-5-12,64.5,60.9,54.1,64.3,38.7,23.7,100,48,22,30.06,29.76,0,0,0,0.00
2013-5-13,60.4,53.8,46.6,34.7,26.3,17.2,62,36,19,30.18,30.05,0,0,0,0.00
2013-5-14,64.1,54.3,43.1,42.3,31.7,24.7,66,44,23,30.24,30.07,0,0,0,0.00
2013-5-15,85.1,67.8,56.4,63.0,52.4,41.8,71,59,41,30.07,29.69,0,0,0,0.00
2013-5-16,84.7,75.4,67.1,63.2,58.5,53.9,73,57,39,29.93,29.76,0,0,0,0.00
2013-5-17,81.7,73.1,63.1,59.0,51.7,43.0,80,49,29,30.16,29.93,0,0,0,0.00
2013-5-18,68.2,63.1,59.5,59.6,56.2,48.8,93,79,50,30.26,30.16,0,0,0,0.00
2013-5-19,74.3,65.7,60.0,66.9,62.9,57.8,100,91,73,30.22,30.10,0,0,0,0.00
2013-5-20,81.0,71.8,66.1,68.7,66.6,64.3,96,85,62,30.13,29.99,0,0,0,0.00
2013-5-21,81.0,73.7,68.4,70.0,68.0,66.4,94,83,66,30.02,29.89,0,0,0,0.00
2013-5-22,85.3,77.3,68.6,71.2,69.7,63.4,96,78,61,29.95,29.84,0,0,0,0.00
2013-5-23,80.9,72.9,64.2,69.7,67.9,62.5,99,85,61,29.93,29.76,0,0,0,0.00
2013-5-24,64.5,57.9,50.4,63.7,48.0,33.5,99,71,48,30.17,29.76,0,0,0,0.00
2013-5-25,66.1,55.8,45.8,36.4,33.0,28.8,61,44,25,30.21,30.10,0,0,0,0.00
2013-5-26,72.8,61.9,51.6,39.5,33.7,28.7,54,36,20,30.23,30.14,0,0,0,0.00
2013-5-27,70.7,63.8,54.5,53.8,42.1,33.3,69,46,27,30.30,30.19,0,0,0,0.00
2013-5-28,82.6,68.8,61.5,69.7,60.2,51.3,99,75,54,30.22,30.07,0,0,0,0.00
2013-5-29,90.8,76.9,66.3,71.7,65.9,60.0,100,73,40,30.14,30.08,0,0,0,0.00
2013-5-30,92.1,81.1,71.6,69.7,66.1,62.3,80,62,39,30.20,30.11,0,0,0,0.00
2013-5-31,95.2,82.4,71.2,67.8,64.2,59.8,83,57,33,30.17,30.03,0,0,0,0.00
2013-6-1,94.3,82.8,72.5,69.1,65.2,62.9,75,56,37,30.06,29.93,0,0,0,0.00
2013-6-2,89.3,79.9,70.8,70.5,67.1,63.1,95,66,50,29.93,29.85,0,0,0,0.00
2013-6-3,79.0,71.7,66.7,69.1,67.3,57.3,99,87,61,29.96,29.83,0,0,0,0.00
2013-6-4,76.9,69.1,61.5,57.2,47.7,38.7,71,48,27,30.14,29.96,0,0,0,0.00
2013-6-5,82.8,71.1,59.6,57.8,54.3,49.3,84,57,34,30.19,30.06,0,0,0,0.00
2013-6-6,74.2,68.1,63.8,65.3,60.2,53.2,99,77,59,30.10,29.87,0,0,0,0.00
2013-6-7,69.6,68.0,65.3,69.6,68.0,32.8,100,100,99,29.87,29.59,0,0,0,0.00
2013-6-8,77.9,71.8,65.0,67.4,64.7,62.1,100,80,60,30.10,29.71,0,0,1,0.00
2013-6-9,80.5,73.9,67.8,70.4,65.8,58.3,93,77,50,30.20,30.09,0,0,0,0.00
2013-6-10,78.0,72.1,68.1,74.9,71.0,67.2,100,96,86,30.11,29.79,0,0,0,0.00
2013-6-11,83.0,74.7,66.1,70.1,65.3,53.1,100,75,46,29.86,29.79,0,0,0,0.00
2013-6-12,88.6,79.9,69.9,71.1,64.9,60.8,82,62,41,29.88,29.79,0,0,0,0.00
2013-6-13,87.7,76.8,70.2,74.4,66.7,54.9,93,72,49,29.82,29.46,0,0,0,0.00
2013-6-14,79.3,70.3,61.1,59.1,53.6,47.8,87,57,36,29.98,29.60,0,0,0,0.00
2013-6-15,83.4,74.7,65.3,64.0,55.7,52.0,75,53,34,30.09,29.98,0,0,0,0.00
2013-6-16,84.9,76.5,68.8,67.9,64.9,60.7,83,68,49,30.03,29.89,0,0,0,0.00
2013-6-17,85.5,78.8,72.6,73.3,69.2,65.7,85,73,58,29.98,29.88,0,0,0,0.00
2013-6-18,77.6,72.5,66.9,72.4,68.9,63.7,98,89,73,29.92,29.81,0,0,0,0.00
2013-6-19,75.6,70.2,66.5,64.9,62.3,59.0,94,76,57,30.17,29.90,0,0,0,0.00
2013-6-20,81.2,72.3,64.9,65.7,60.9,53.7,94,69,47,30.29,30.17,0,0,0,0.00
2013-6-21,82.8,73.0,62.5,65.5,55.6,46.7,82,57,31,30.32,30.24,0,0,0,0.00
2013-6-22,86.2,76.5,66.3,67.6,65.1,62.3,94,70,48,30.27,30.15,0,0,0,0.00
2013-6-23,83.5,75.4,69.9,74.4,70.1,66.3,99,84,66,30.20,30.08,0,0,0,0.00
2013-6-24,92.4,78.2,72.9,75.7,72.0,67.5,96,82,54,30.14,30.04,0,0,0,0.00
2013-6-25,93.5,81.8,71.7,73.3,69.8,60.3,95,69,44,30.06,29.90,0,0,0,0.00
2013-6-26,89.9,79.6,72.9,76.2,69.2,64.9,84,71,53,29.94,29.81,0,0,0,0.00
2013-6-27,83.9,74.7,70.9,74.3,70.6,67.8,98,88,69,29.85,29.64,0,0,0,0.00
2013-6-28,88.2,75.0,70.1,73.7,70.8,68.5,100,88,54,29.65,29.51,0,0,0,0.00
2013-6-29,86.6,77.5,68.4,71.6,66.7,59.4,100,73,43,29.71,29.55,0,0,0,0.00
2013-6-30,85.5,78.4,73.1,76.7,73.7,71.5,98,86,66,29.86,29.71,0,0,0,0.00
2013-7-1,82.5,76.0,72.4,75.6,72.4,70.0,99,89,71,30.00,29.86,0,0,0,0.00
2013-7-2,81.4,75.9,73.2,75.5,72.7,70.9,98,90,77,30.20,30.00,0,0,0,0.00
2013-7-3,85.4,77.5,72.2,76.6,73.1,70.4,99,87,69,30.25,30.17,0,0,0,0.00
2013-7-4,88.4,80.8,74.6,74.9,72.9,69.0,95,78,53,30.27,30.18,0,0,0,0.00
2013-7-5,89.2,82.1,75.1,74.3,72.5,69.5,90,74,53,30.25,30.13,0,0,0,0.00
2013-7-6,92.3,82.8,76.4,76.0,72.9,69.7,90,73,50,30.20,30.08,0,0,0,0.00
2013-7-7,91.7,81.3,72.6,75.0,71.5,66.3,90,73,53,30.13,30.01,0,0,0,0.00
2013-7-8,85.5,77.5,71.3,72.1,69.3,64.7,96,77,50,30.12,30.05,0,0,0,0.00
2013-7-9,83.8,79.4,74.6,75.4,72.3,69.3,92,79,66,30.12,30.01,0,0,0,0.00
2013-7-10,88.5,79.7,73.2,77.6,74.4,70.2,98,84,65,30.02,29.87,0,0,0,0.00
2013-7-11,84.1,77.6,73.0,73.1,70.8,67.1,97,81,58,29.94,29.85,0,0,0,0.00
2013-7-12,77.3,70.6,67.1,72.3,68.2,66.3,99,92,80,30.04,29.91,0,0,0,0.00
2013-7-13,84.4,76.0,70.2,75.8,70.7,67.8,98,85,67,30.28,30.03,0,0,0,0.00
2013-7-14,88.3,80.9,74.0,76.1,73.2,68.1,99,79,53,30.35,30.28,0,0,0,0.00
2013-7-15,92.8,83.6,75.0,75.2,72.1,68.3,92,70,46,30.32,30.19,0,0,0,0.00
2013-7-16,92.9,86.5,80.5,75.0,70.6,65.6,77,60,42,30.24,30.17,2,0,6,0.00
2013-7-17,93.5,85.1,79.1,76.6,72.0,67.1,85,66,44,30.22,30.10,7,1,8,0.00
2013-7-18,94.4,86.3,78.9,79.9,75.7,73.2,86,72,52,30.13,30.00,9,2,13,0.00
2013-7-19,95.4,87.7,81.2,79.0,75.6,72.0,82,68,51,30.02,29.88,12,3,18,0.00
2013-7-20,93.6,85.6,79.8,76.5,73.6,69.0,84,69,46,29.92,29.80,14,3,18,0.00
2013-7-21,91.1,82.1,77.5,74.5,70.5,66.6,87,69,48,29.95,29.88,10,2,19,0.00
2013-7-22,89.2,80.7,74.8,75.2,72.6,68.9,92,77,58,29.94,29.77,8,2,13,0.00
2013-7-23,87.3,79.9,73.4,74.5,70.1,64.3,98,74,48,29.80,29.65,17,3,23,0.00
2013-7-24,83.5,78.6,75.3,70.0,64.7,58.3,77,63,48,29.92,29.69,15,3,18,0.00
2013-7-25,80.6,72.9,65.0,64.2,57.7,52.2,73,60,44,30.04,29.91,16,4,21,0.00
2013-7-26,83.4,75.3,66.4,66.4,60.8,56.8,85,62,42,30.10,30.03,7,2,12,0.00
2013-7-27,85.0,75.4,71.0,71.2,68.2,65.0,97,80,55,30.07,29.93,14,3,23,0.00
2013-7-28,82.6,75.8,69.6,73.4,70.0,66.2,97,83,63,30.01,29.90,7,2,9,0.00
2013-7-29,82.7,75.0,67.8,70.3,58.2,50.2,88,59,33,30.18,29.99,12,3,17,0.00
2013-7-30,82.2,74.8,67.0,66.6,58.2,53.4,78,57,41,30.25,30.15,9,2,14,0.00
2013-7-31,79.0,74.0,70.0,69.3,66.6,63.3,95,78,61,30.17,30.04,16,2,16,0.00
2013-8-1,79.7,72.7,68.0,73.4,70.1,66.9,100,92,77,30.04,29.82,9,2,15,0.00
2013-8-2,86.1,77.2,68.7,69.1,65.1,59.9,95,68,43,29.98,29.87,11,2,17,0.00
2013-8-3,79.6,74.0,69.5,68.8,65.8,61.3,90,76,55,29.99,29.93,7,1,12,0.00
2013-8-4,81.6,73.8,67.0,66.9,58.4,49.8,90,62,36,30.05,29.92,17,3,23,0.00
2013-8-5,80.3,72.5,65.1,60.8,55.3,50.2,69,56,36,30.12,30.02,8,2,11,0.00
2013-8-6,72.5,70.5,67.6,67.4,65.3,60.8,94,84,69,30.10,30.02,7,2,10,0.00
2013-8-7,83.2,75.6,70.3,72.4,69.3,66.5,92,81,67,30.09,30.00,10,3,13,0.00
2013-8-8,86.7,79.1,74.7,75.5,72.7,71.0,89,81,65,30.05,29.99,13,3,16,0.00
2013-8-9,91.3,83.5,76.9,75.6,73.2,69.8,89,72,53,29.99,29.86,16,3,23,0.00
2013-8-10,82.1,78.5,74.8,72.2,67.2,60.7,84,69,53,30.10,29.96,9,2,12,0.00
2013-8-11,83.5,77.6,73.7,70.9,67.9,62.9,88,73,54,30.12,30.02,7,2,10,0.00
2013-8-12,89.1,80.5,73.4,73.5,68.4,60.0,90,69,39,30.04,29.93,11,2,16,0.00
2013-8-13,85.2,78.3,69.3,74.4,70.5,65.1,98,78,55,29.93,29.74,21,3,34,0.00
2013-8-14,74.5,68.6,61.9,70.2,50.5,47.9,98,53,43,30.12,29.83,19,4,26,0.00
2013-8-15,77.6,68.8,60.3,58.1,51.7,44.5,76,56,31,30.20,30.10,12,2,14,0.00
2013-8-16,78.9,70.4,61.4,59.5,55.4,50.8,85,61,41,30.22,30.15,10,2,12,0.00
2013-8-17,78.3,69.8,63.4,61.2,58.3,53.2,86,69,44,30.28,30.21,13,3,16,0.00
2013-8-18,71.7,69.2,66.6,65.0,62.1,57.5,93,78,61,30.23,30.18,9,2,10,0.00
2013-8-19,73.1,69.2,64.3,67.3,64.4,61.7,92,85,77,30.20,30.09,7,1,11,0.00
2013-8-20,86.0,76.4,67.4,71.9,68.1,65.4,95,77,53,30.18,30.10,13,2,15,0.00
2013-8-21,86.7,78.7,72.5,75.1,71.8,69.8,98,81,60,30.21,30.09,9,2,13,0.00
2013-8-22,88.7,79.7,71.9,72.7,67.9,63.5,98,70,46,30.12,29.94,14,3,19,0.00
2013-8-23,77.8,72.9,66.5,70.8,64.4,53.8,94,75,53,30.13,29.95,13,2,15,0.00
2013-8-24,80.9,72.3,64.0,64.8,59.5,52.6,90,66,41,30.35,30.13,10,3,14,0.00
2013-8-25,81.5,72.8,64.3,64.9,58.9,52.4,92,64,37,30.43,30.29,10,2,13,0.00
2013-8-26,87.0,74.9,64.7,66.3,61.5,57.6,84,65,37,30.32,30.03,14,2,20,0.00
2013-8-27,90.2,80.5,71.9,71.0,67.4,64.6,80,65,46,30.03,29.89,13,3,18,0.00
2013-8-28,80.5,76.5,74.5,73.4,71.1,67.8,92,83,68,29.93,29.84,12,1,13,0.00
2013-8-29,83.7,76.8,72.9,72.4,69.8,65.9,94,80,58,30.04,29.84,11,4,14,0.00
2013-8-30,85.9,77.7,71.4,71.1,68.9,66.8,88,75,57,30.06,29.91,11,2,14,0.00
2013-8-31,89.0,79.3,71.9,74.9,70.5,68.0,88,75,54,29.93,29.81,10,3,17,0.00
2013-9-1,89.8,80.4,72.0,74.3,70.1,64.2,87,72,43,29.86,29.77,8,2,15,0.00
2013-9-2,88.8,78.9,70.9,74.0,71.6,68.3,98,80,53,29.83,29.73,12,2,16,0.00
2013-9-3,83.6,78.5,72.0,73.2,62.5,54.3,86,60,39,29.98,29.74,17,4,18,0.00
2013-9-4,81.6,72.5,64.4,61.2,55.7,49.6,71,56,33,30.10,29.98,13,2,17,0.00
2013-9-5,83.3,74.8,65.8,61.4,57.3,47.1,78,56,39,30.14,30.01,13,3,22,0.00
2013-9-6,75.7,68.6,60.5,55.7,49.3,43.8,66,51,35,30.28,30.14,14,3,19,0.00
2013-9-7,79.1,70.0,60.0,64.1,58.5,51.7,84,68,53,30.16,29.95,11,2,17,0.00
2013-9-8,87.0,76.6,67.8,67.3,63.2,58.0,86,65,42,30.06,29.88,12,3,17,0.00
2013-9-9,78.5,71.8,64.3,68.5,58.6,50.2,83,64,54,30.22,30.06,12,4,16,0.00
2013-9-10,89.3,79.2,72.2,73.9,71.1,68.1,89,77,54,30.20,30.11,12,2,13,0.00
2013-9-11,92.4,82.6,75.1,75.1,72.1,68.6,90,72,47,30.17,30.02,13,2,16,0.00
2013-9-12,90.6,77.9,70.7,72.7,70.1,64.0,97,79,48,30.02,29.76,19,2,40,0.00
2013-9-13,77.8,71.2,63.4,69.6,57.5,47.1,96,65,35,29.95,29.72,18,4,23,0.00
2013-9-14,69.6,62.0,55.4,50.3,45.7,43.6,70,56,41,30.18,29.96,19,4,19,0.00
2013-9-15,75.3,65.0,53.2,59.6,51.8,47.1,85,64,44,30.26,30.11,13,2,16,0.00
2013-9-16,72.6,66.7,62.3,61.2,57.7,53.7,93,74,53,30.25,30.06,12,2,16,0.00
2013-9-17,67.6,61.0,53.1,57.2,45.4,34.7,78,58,31,30.45,30.25,14,4,19,0.00
2013-9-18,70.7,60.7,51.5,53.0,48.4,42.1,88,66,36,30.37,30.21,6,1,9,0.00
2013-9-19,75.7,66.4,56.9,59.2,55.7,52.1,92,70,50,30.23,30.10,7,1,14,0.00
2013-9-20,79.2,69.3,60.6,61.1,58.5,55.7,88,70,50,30.12,29.98,10,2,14,0.00
2013-9-21,76.2,67.5,63.2,66.8,61.9,58.1,98,83,60,30.00,29.71,15,3,16,0.00
2013-9-22,72.0,65.3,59.3,62.6,54.6,48.2,98,71,45,29.97,29.76,14,3,16,0.00
2013-9-23,65.4,59.8,56.0,49.0,45.4,42.0,77,59,47,30.12,29.97,12,3,15,0.00
2013-9-24,70.4,60.3,51.0,53.7,47.2,44.2,82,64,40,30.14,29.97,11,2,14,0.00
2013-9-25,73.1,62.7,53.6,56.5,48.5,38.3,86,63,30,30.01,29.90,9,2,10,0.00
2013-9-26,73.0,65.0,59.5,56.9,54.2,50.3,84,69,46,30.09,29.94,9,2,12,0.00
2013-9-27,70.4,64.7,59.2,59.5,56.3,54.3,88,75,59,30.26,30.10,10,2,11,0.00
2013-9-28,68.9,63.9,60.0,56.2,54.7,52.1,84,73,55,30.33,30.24,12,2,13,0.00
2013-9-29,70.9,63.1,55.0,57.4,54.9,52.4,92,76,55,30.24,30.08,8,1,11,0.00
2013-9-30,72.8,64.1,55.7,56.5,53.7,51.6,88,70,48,30.12,30.00,6,1,10,0.00
2013-10-1,80.1,68.8,60.6,63.1,58.7,55.2,86,72,43,30.10,29.99,7,1,13,0.00
2013-10-2,83.9,72.6,62.5,64.1,60.7,56.5,92,69,41,30.11,30.01,12,2,18,0.00
2013-10-3,81.7,72.8,64.4,66.8,63.7,60.3,90,74,51,30.14,30.06,7,1,9,0.00
2013-10-4,85.2,74.4,65.8,68.5,65.2,61.8,94,75,46,30.11,30.02,6,1,12,0.00
2013-10-5,85.9,76.4,68.4,68.8,66.6,64.0,94,74,49,30.11,30.02,8,1,11,0.00
2013-10-6,86.5,77.0,69.2,68.7,66.4,63.5,90,71,48,30.05,29.93,11,2,16,0.00
2013-10-7,75.6,67.3,58.8,70.8,62.9,47.1,98,86,64,30.08,29.82,22,4,34,0.00
2013-10-8,65.1,59.8,53.8,51.1,47.7,45.7,78,65,51,30.30,30.08,13,4,19,0.00
2013-10-9,60.5,57.9,55.1,53.7,51.2,47.8,93,79,70,30.33,30.22,17,6,20,0.00
2013-10-10,58.1,56.1,53.6,57.5,55.0,52.0,98,96,88,30.22,30.00,10,4,18,0.00
2013-10-11,62.3,60.1,56.5,62.0,59.6,55.9,100,98,97,30.02,29.95,12,3,15,0.00
2013-10-12,65.9,62.2,60.4,62.2,60.4,58.2,100,94,80,30.18,30.00,16,6,20,0.00
2013-10-13,63.8,61.2,58.3,60.3,58.1,54.9,97,90,81,30.35,30.18,15,6,19,0.00
2013-10-14,67.3,60.9,56.7,56.6,55.1,53.9,92,82,65,30.36,30.25,11,3,13,0.00
2013-10-15,69.2,61.7,54.5,58.7,52.8,43.2,95,75,40,30.28,30.11,6,2,9,0.00
2013-10-16,70.4,64.8,61.1,62.9,60.4,57.1,93,86,75,30.11,29.94,7,1,10,0.00
2013-10-17,74.5,67.6,62.4,65.3,62.7,56.0,96,85,68,29.95,29.76,15,2,22,0.00
2013-10-18,65.5,59.7,54.2,56.1,45.3,39.8,83,60,42,30.05,29.85,14,3,22,0.00
2013-10-19,64.3,57.9,51.2,59.1,52.4,47.3,90,82,60,30.03,29.82,11,2,17,0.00
2013-10-20,62.4,55.3,48.5,54.8,38.5,31.6,89,55,32,30.13,29.89,26,4,31,0.00
2013-10-21,65.7,55.7,46.0,50.5,44.7,37.3,92,69,36,30.18,29.99,9,2,14,0.00
2013-10-22,63.8,57.3,51.6,53.0,47.0,35.5,85,70,47,29.99,29.84,8,2,14,0.00
2013-10-23,57.4,50.6,45.2,43.2,38.5,30.7,92,65,37,29.93,29.67,13,3,20,0.00
2013-10-24,51.6,46.0,41.1,37.4,32.0,25.5,79,60,36,30.07,29.93,20,4,27,0.00
2013-10-25,51.5,46.9,42.6,32.5,30.7,29.1,65,53,46,30.35,30.29,8,3,14,0.00
2013-10-26,55.2,47.0,36.7,37.2,31.6,27.6,83,57,35,30.33,29.97,18,3,24,0.00
2013-10-27,59.9,51.3,44.1,44.2,37.1,31.8,81,60,37,30.17,29.98,16,2,19,0.00
2013-10-28,51.1,46.7,43.7,45.1,41.4,38.8,85,82,78,30.30,30.17,2,0,4,0.00
2013-10-29,61.2,52.7,45.6,48.3,43.3,38.7,90,71,46,30.40,30.30,6,1,9,0.00
2013-10-30,62.1,56.2,52.5,56.2,53.1,48.4,97,89,79,30.34,30.17,6,1,9,0.00
2013-10-31,67.5,61.7,55.4,60.7,57.7,53.9,96,87,75,30.21,29.80,9,2,15,0.00
2013-11-1,71.1,66.5,61.4,64.2,61.3,57.7,97,84,71,29.79,29.62,26,4,26,0.00
2013-11-2,67.4,59.9,52.0,60.3,47.2,39.1,94,65,43,29.92,29.66,17,2,21,0.00
2013-11-3,56.1,50.8,43.9,42.7,33.4,17.7,77,54,23,30.47,29.91,20,3,22,0.00
2013-11-4,46.2,41.6,36.2,29.4,24.8,21.4,62,52,40,30.66,30.48,12,4,17,0.00
2013-11-5,56.2,49.1,40.2,48.7,40.1,28.8,83,71,61,30.63,30.49,6,1,8,0.00
2013-11-6,66.9,58.5,52.0,53.8,50.8,47.5,87,76,58,30.49,30.09,9,2,13,0.00
2013-11-7,62.2,54.9,45.5,57.2,46.4,22.5,96,75,39,30.11,29.90,19,4,28,0.00
2013-11-8,51.1,45.0,39.2,29.4,25.8,21.2,66,48,31,30.35,30.11,20,3,33,0.00
2013-11-9,54.7,45.4,34.4,34.4,29.4,26.3,82,56,34,30.39,30.06,13,2,17,0.00
2013-11-10,62.9,51.0,42.0,37.5,30.4,25.5,70,47,25,30.26,29.97,20,5,30,0.00
2013-11-11,56.9,49.2,39.6,33.7,30.2,26.6,69,49,33,30.34,30.03,10,3,18,0.00
2013-11-12,51.7,42.7,34.3,38.4,23.8,13.5,65,47,35,30.43,29.99,17,4,22,0.00
2013-11-13,42.0,37.0,32.3,21.5,19.1,16.7,59,49,39,30.51,30.42,14,3,21,0.00
2013-11-14,53.9,41.4,31.6,35.1,26.0,17.8,82,57,26,30.42,30.25,7,1,9,0.00
2013-11-15,59.1,45.6,34.7,44.7,31.4,25.9,93,60,31,30.31,30.21,7,1,9,0.00
2013-11-16,52.0,49.2,45.5,51.0,48.2,44.0,98,97,93,30.35,30.26,5,1,9,0.00
2013-11-17,62.9,57.2,51.4,58.8,55.0,50.5,99,92,82,30.26,29.78,8,2,13,0.00
2013-11-18,68.1,59.9,51.7,61.6,38.9,18.0,98,55,15,29.98,29.72,29,5,34,0.00
2013-11-19,51.4,45.5,40.9,28.4,26.1,24.2,57,47,36,30.40,29.97,17,6,26,0.00
2013-11-20,47.0,40.6,37.0,31.8,26.7,23.1,78,58,44,30.59,30.40,11,3,15,0.00
2013-11-21,48.8,43.0,35.7,42.6,35.0,29.0,86,74,65,30.59,30.42,8,1,10,0.00
2013-11-22,60.1,52.9,46.3,54.7,47.4,39.5,93,82,73,30.42,30.02,11,1,20,0.00
2013-11-23,58.2,45.6,33.7,49.9,27.0,12.3,76,49,31,30.23,30.04,27,8,32,0.00
2013-11-24,33.6,28.7,25.5,12.5,5.6,1.4,46,37,29,30.56,30.23,23,7,37,0.00
2013-11-25,37.1,30.5,23.9,13.9,10.0,7.6,52,42,30,30.62,30.37,11,3,14,0.00
2013-11-26,51.8,37.3,33.2,51.5,29.4,13.4,99,77,40,30.38,29.61,15,2,20,0.00
2013-11-27,40.2,37.6,30.6,38.8,32.4,14.7,98,83,51,30.08,29.54,22,6,30,0.00
2013-11-28,38.1,32.8,28.3,25.4,16.7,12.2,73,52,40,30.51,30.08,19,4,32,0.00
2013-11-29,42.0,35.3,29.3,25.0,21.8,18.6,82,59,40,30.75,30.49,11,2,20,0.00
2013-11-30,37.4,33.4,28.1,29.0,22.7,19.9,77,65,51,30.75,30.40,8,2,9,0.00
2013-12-1,46.4,38.3,29.7,34.3,29.2,25.8,88,71,51,30.40,30.04,6,1,8,0.00
2013-12-2,47.4,43.7,40.8,40.5,35.7,30.9,80,73,65,30.04,29.89,6,1,8,0.00
2013-12-3,55.4,46.7,42.1,40.0,37.0,33.7,82,70,50,30.01,29.90,4,1,9,0.00
2013-12-4,54.2,48.3,41.9,50.1,43.2,37.8,90,82,75,30.10,30.01,3,0,5,0.00
2013-12-5,68.9,59.4,51.2,61.2,55.6,48.9,96,88,69,30.09,29.95,11,3,17,0.00
2013-12-6,64.1,51.5,39.5,62.3,50.1,38.1,98,95,90,30.19,29.90,18,4,24,0.00
2013-12-7,42.8,38.4,33.0,38.2,29.8,20.6,96,73,52,30.58,30.16,13,4,19,0.00
2013-12-8,33.0,30.5,28.4,31.0,25.0,19.5,97,81,61,30.62,30.31,14,3,15,0.00
2013-12-9,32.5,32.3,32.1,31.9,31.5,31.0,98,97,96,30.33,30.18,0,0,0,0.00
2013-12-10,33.6,32.0,30.9,26.7,24.2,22.3,84,73,63,30.26,30.19,4,1,9,0.00
2013-12-11,36.4,30.8,27.2,28.5,25.0,20.5,90,79,67,30.40,30.25,3,0,6,0.00
2013-12-12,33.3,29.9,27.1,27.0,14.6,8.1,84,54,36,30.47,30.27,12,3,20,0.00
2013-12-13,42.6,34.8,28.0,27.5,17.3,10.6,72,50,30,30.34,30.25,12,2,13,0.00
2013-12-14,41.0,37.0,35.0,37.1,31.5,21.7,100,81,57,30.35,29.73,12,3,17,0.00
2013-12-15,47.5,38.8,33.7,37.0,30.0,21.8,96,72,50,29.98,29.66,18,4,27,0.00
2013-12-16,38.2,35.8,33.9,26.9,24.4,21.4,75,63,57,30.22,29.98,9,3,14,0.00
2013-12-17,38.7,36.0,34.2,34.9,30.1,25.7,90,79,69,30.19,29.96,8,2,10,0.00
2013-12-18,42.4,35.9,32.0,32.7,24.4,16.4,95,65,40,30.25,30.02,18,3,26,0.00
2013-12-19,60.3,44.5,31.0,29.0,26.0,23.4,81,52,26,30.24,30.09,9,2,15,0.00
2013-12-20,59.2,53.0,46.4,48.0,34.0,26.4,71,49,37,30.14,30.01,10,3,14,0.00
2013-12-21,70.4,62.0,53.8,60.5,50.8,42.2,80,67,54,30.05,29.92,17,5,23,0.00
2013-12-22,70.6,64.5,59.6,62.8,60.3,57.8,97,87,71,30.05,29.84,23,5,27,0.00
2013-12-23,63.0,55.0,40.5,62.7,50.6,26.6,99,86,57,30.26,29.95,17,4,27,0.00
2013-12-24,40.7,35.0,24.9,27.1,17.6,3.8,64,49,33,30.52,30.23,30,6,35,0.00
2013-12-25,33.3,26.9,21.8,20.9,11.1,7.3,75,51,35,30.61,30.42,12,3,14,0.00
2013-12-26,42.5,33.5,27.5,28.7,23.7,19.7,82,68,47,30.42,30.25,7,2,12,0.00
2013-12-27,49.8,38.1,30.0,29.6,24.5,18.1,88,61,29,30.46,30.34,8,1,13,0.00
2013-12-28,56.5,43.4,32.5,31.7,26.7,23.2,81,55,28,30.37,30.15,11,2,13,0.00
2013-12-29,48.7,45.4,41.5,47.2,40.2,26.0,99,85,42,30.14,29.56,14,3,22,0.00
2013-12-30,46.1,40.2,34.4,39.8,31.9,21.0,97,73,57,30.21,29.84,15,3,20,0.00
2013-12-31,45.6,35.1,31.9,28.8,22.1,14.7,68,59,37,30.35,30.13,15,4,27,0.00
2014-1-1,47.5,37.5,29.4,33.1,25.1,16.1,81,61,44,30.45,30.18,5,2,11,0.00
2014-1-2,38.6,34.6,31.1,34.4,31.9,29.6,99,90,77,30.16,29.65,9,3,13,0.00